createdAt,value
2018-09-03T00:00:23.190Z,16.90
2018-09-03T00:02:50.874Z,16.90
2018-09-03T00:05:18.535Z,16.90
2018-09-03T00:07:46.374Z,17.00
2018-09-03T00:10:14.036Z,17.00
2018-09-03T00:12:41.730Z,17.10
2018-09-03T00:15:09.428Z,17.00
2018-09-03T00:17:37.076Z,17.00
2018-09-03T00:20:04.773Z,17.00
2018-09-03T00:22:32.423Z,17.00
2018-09-03T00:25:00.114Z,17.10
2018-09-03T00:27:27.739Z,17.20
2018-09-03T00:29:55.390Z,17.20
2018-09-03T00:32:28.842Z,17.20
2018-09-03T00:35:02.415Z,17.20
2018-09-03T00:37:35.930Z,17.20
2018-09-03T00:40:09.443Z,17.20
2018-09-03T00:42:42.727Z,17.10
2018-09-03T00:45:16.256Z,17.00
2018-09-03T00:47:43.878Z,17.00
2018-09-03T00:50:11.657Z,17.00
2018-09-03T00:52:39.384Z,17.00
2018-09-03T00:55:07.090Z,17.00
2018-09-03T00:57:34.750Z,17.10
2018-09-03T01:00:02.485Z,17.00
2018-09-03T01:02:30.261Z,17.20
2018-09-03T01:04:57.891Z,17.20
2018-09-03T01:07:25.678Z,17.20
2018-09-03T01:09:53.317Z,17.20
2018-09-03T01:12:21.092Z,17.10
2018-09-03T01:14:48.832Z,17.10
2018-09-03T01:17:16.502Z,17.20
2018-09-03T01:19:44.196Z,17.10
2018-09-03T01:22:11.894Z,17.20
2018-09-03T01:24:39.580Z,17.10
2018-09-03T01:27:07.230Z,17.10
2018-09-03T01:29:34.921Z,17.10
2018-09-03T01:32:02.746Z,17.10
2018-09-03T01:34:30.356Z,17.10
2018-09-03T01:36:58.013Z,17.10
2018-09-03T01:39:25.677Z,17.10
2018-09-03T01:41:53.332Z,17.20
2018-09-03T01:44:21.057Z,17.10
2018-09-03T01:46:48.726Z,17.10
2018-09-03T01:49:16.453Z,17.10
2018-09-03T01:51:44.125Z,17.00
2018-09-03T01:54:11.790Z,17.10
2018-09-03T01:56:39.396Z,17.10
2018-09-03T01:59:07.028Z,17.10
2018-09-03T02:01:34.592Z,17.00
2018-09-03T02:04:02.342Z,17.00
2018-09-03T02:06:30.029Z,16.90
2018-09-03T02:08:57.756Z,16.90
2018-09-03T02:11:25.390Z,16.80
2018-09-03T02:13:53.028Z,16.80
2018-09-03T02:16:20.761Z,17.00
2018-09-03T02:18:48.344Z,17.00
2018-09-03T02:21:16.020Z,17.00
2018-09-03T02:23:43.656Z,17.00
2018-09-03T02:26:11.302Z,17.00
2018-09-03T02:28:38.999Z,16.90
2018-09-03T02:31:06.723Z,16.90
2018-09-03T02:33:34.419Z,17.00
2018-09-03T02:36:02.098Z,17.00
2018-09-03T02:38:29.837Z,17.00
2018-09-03T02:40:57.549Z,17.10
2018-09-03T02:43:25.251Z,17.10
2018-09-03T02:45:52.910Z,17.20
2018-09-03T02:48:21.109Z,17.10
2018-09-03T02:50:48.825Z,17.20
2018-09-03T02:53:16.490Z,17.20
2018-09-03T02:55:44.198Z,17.20
2018-09-03T02:58:11.849Z,17.20
2018-09-03T03:00:39.537Z,17.20
2018-09-03T03:03:07.189Z,17.20
2018-09-03T03:05:34.806Z,17.30
2018-09-03T03:08:02.511Z,17.30
2018-09-03T03:10:30.233Z,17.30
2018-09-03T03:12:57.910Z,17.20
2018-09-03T03:15:25.510Z,17.30
2018-09-03T03:17:53.188Z,17.30
2018-09-03T03:20:20.787Z,17.30
2018-09-03T03:22:48.450Z,17.30
2018-09-03T03:25:16.144Z,17.20
2018-09-03T03:27:43.721Z,17.20
2018-09-03T03:30:11.539Z,17.30
2018-09-03T03:32:39.573Z,17.30
2018-09-03T03:35:08.714Z,17.30
2018-09-03T03:37:36.576Z,17.20
2018-09-03T03:40:04.372Z,17.20
2018-09-03T03:42:31.996Z,17.20
2018-09-03T03:44:59.897Z,17.20
2018-09-03T03:47:27.722Z,17.20
2018-09-03T03:49:55.818Z,17.20
2018-09-03T03:52:23.540Z,17.30
2018-09-03T03:54:51.254Z,17.30
2018-09-03T03:57:18.886Z,17.30
2018-09-03T03:59:46.591Z,17.30
2018-09-03T04:02:14.244Z,17.30
2018-09-03T04:04:41.885Z,17.30
2018-09-03T04:07:09.576Z,17.30
2018-09-03T04:09:37.213Z,17.20
2018-09-03T04:12:04.916Z,17.20
2018-09-03T04:14:32.557Z,17.20
2018-09-03T04:17:00.293Z,17.10
2018-09-03T04:19:27.969Z,17.10
2018-09-03T04:21:55.669Z,17.10
2018-09-03T04:24:23.305Z,17.10
2018-09-03T04:26:51.018Z,17.10
2018-09-03T04:29:18.711Z,17.10
2018-09-03T04:31:46.505Z,17.10
2018-09-03T04:34:14.135Z,17.20
2018-09-03T04:36:41.795Z,17.20
2018-09-03T04:39:09.590Z,17.30
2018-09-03T04:41:37.597Z,17.30
2018-09-03T04:44:05.456Z,17.30
2018-09-03T04:46:33.517Z,17.30
2018-09-03T04:49:01.505Z,17.30
2018-09-03T04:51:29.445Z,17.30
2018-09-03T04:53:57.171Z,17.30
2018-09-03T04:56:24.851Z,17.20
2018-09-03T04:58:52.631Z,17.00
2018-09-03T05:01:20.365Z,17.00
2018-09-03T05:03:48.093Z,17.10
2018-09-03T05:06:15.741Z,17.30
2018-09-03T05:08:43.519Z,17.30
2018-09-03T05:11:11.179Z,17.40
2018-09-03T05:13:38.873Z,17.40
2018-09-03T05:16:06.554Z,17.40
2018-09-03T05:18:34.205Z,17.40
2018-09-03T05:21:01.810Z,17.50
2018-09-03T05:23:29.416Z,17.50
2018-09-03T05:25:57.118Z,17.60
2018-09-03T05:28:24.833Z,17.60
2018-09-03T05:30:52.568Z,17.50
2018-09-03T05:33:20.312Z,17.60
2018-09-03T05:35:48.008Z,17.50
2018-09-03T05:38:15.606Z,17.50
2018-09-03T05:40:43.233Z,17.60
2018-09-03T05:43:11.085Z,17.60
2018-09-03T05:45:38.750Z,17.50
2018-09-03T05:48:06.483Z,17.60
2018-09-03T05:50:34.175Z,17.50
2018-09-03T05:53:01.942Z,17.50
2018-09-03T05:55:29.585Z,17.50
2018-09-03T05:57:57.254Z,17.60
2018-09-03T06:00:25.045Z,17.70
2018-09-03T06:02:52.725Z,17.80
2018-09-03T06:05:20.436Z,17.90
2018-09-03T06:07:48.099Z,17.90
2018-09-03T06:10:15.833Z,17.80
2018-09-03T06:12:43.522Z,17.80
2018-09-03T06:15:11.154Z,17.80
2018-09-03T06:17:38.777Z,17.90
2018-09-03T06:20:06.440Z,18.00
2018-09-03T06:22:34.079Z,18.10
2018-09-03T06:25:02.187Z,18.20
2018-09-03T06:27:30.101Z,18.40
2018-09-03T06:29:57.779Z,18.50
2018-09-03T06:32:25.498Z,18.40
2018-09-03T06:34:53.207Z,18.50
2018-09-03T06:37:20.898Z,18.50
2018-09-03T06:39:48.625Z,18.50
2018-09-03T06:42:16.314Z,18.50
2018-09-03T06:44:43.958Z,18.60
2018-09-03T06:47:11.678Z,18.60
2018-09-03T06:49:39.448Z,18.50
2018-09-03T06:52:07.076Z,18.40
2018-09-03T06:54:34.731Z,18.20
2018-09-03T06:57:02.340Z,18.10
2018-09-03T06:59:29.960Z,18.10
2018-09-03T07:01:57.589Z,18.10
2018-09-03T07:04:25.252Z,18.20
2018-09-03T07:06:52.909Z,18.40
2018-09-03T07:09:20.507Z,18.50
2018-09-03T07:11:48.167Z,18.60
2018-09-03T07:14:15.992Z,18.90
2018-09-03T07:16:43.649Z,19.10
2018-09-03T07:19:11.258Z,19.20
2018-09-03T07:21:38.913Z,19.20
2018-09-03T07:24:06.639Z,19.10
2018-09-03T07:26:34.562Z,19.10
2018-09-03T07:29:02.216Z,19.30
2018-09-03T07:31:29.955Z,19.40
2018-09-03T07:33:57.713Z,19.50
2018-09-03T07:36:25.372Z,19.50
2018-09-03T07:38:52.960Z,19.50
2018-09-03T07:41:20.592Z,19.50
2018-09-03T07:43:48.338Z,19.70
2018-09-03T07:46:16.064Z,19.90
2018-09-03T07:48:43.766Z,19.90
2018-09-03T07:51:11.581Z,20.10
2018-09-03T07:53:39.290Z,20.30
2018-09-03T07:56:06.901Z,20.10
2018-09-03T07:58:35.462Z,20.70
2018-09-03T08:01:03.115Z,21.10
2018-09-03T08:03:30.799Z,21.10
2018-09-03T08:05:58.487Z,21.10
2018-09-03T08:08:26.166Z,21.90
2018-09-03T08:10:53.819Z,22.10
2018-09-03T08:13:27.149Z,21.40
2018-09-03T08:15:54.878Z,21.30
2018-09-03T08:18:22.561Z,21.50
2018-09-03T08:20:50.333Z,21.40
2018-09-03T08:23:17.991Z,21.60
2018-09-03T08:25:45.622Z,21.50
2018-09-03T08:28:13.338Z,21.70
2018-09-03T08:30:41.071Z,22.50
2018-09-03T08:33:08.694Z,22.40
2018-09-03T08:35:36.432Z,22.00
2018-09-03T08:38:04.365Z,22.10
2018-09-03T08:40:32.051Z,22.00
2018-09-03T08:42:59.693Z,22.00
2018-09-03T08:45:27.365Z,21.80
2018-09-03T08:47:55.071Z,21.60
2018-09-03T08:50:22.747Z,21.70
2018-09-03T08:52:50.398Z,22.50
2018-09-03T08:55:18.059Z,22.90
2018-09-03T08:57:45.669Z,23.00
2018-09-03T09:00:13.342Z,22.80
2018-09-03T09:02:41.008Z,22.70
2018-09-03T09:05:08.650Z,22.70
2018-09-03T09:07:36.297Z,22.80
2018-09-03T09:10:03.994Z,23.10
2018-09-03T09:12:31.630Z,23.30
2018-09-03T09:14:59.354Z,23.50
2018-09-03T09:17:27.085Z,23.50
2018-09-03T09:19:54.666Z,23.00
2018-09-03T09:22:22.309Z,22.80
2018-09-03T09:24:50.044Z,23.10
2018-09-03T09:27:17.673Z,23.50
2018-09-03T09:29:45.274Z,23.70
2018-09-03T09:32:12.965Z,23.40
2018-09-03T09:34:40.698Z,23.20
2018-09-03T09:37:08.311Z,23.10
2018-09-03T09:39:35.937Z,23.30
2018-09-03T09:42:03.668Z,24.10
2018-09-03T09:44:31.450Z,24.00
2018-09-03T09:46:59.097Z,24.20
2018-09-03T09:49:26.890Z,24.70
2018-09-03T09:51:54.546Z,25.30
2018-09-03T09:54:22.208Z,25.40
2018-09-03T09:56:49.976Z,25.50
2018-09-03T09:59:17.688Z,25.30
2018-09-03T10:01:45.410Z,25.20
2018-09-03T10:04:13.143Z,25.50
2018-09-03T10:06:40.801Z,25.60
2018-09-03T10:09:08.502Z,25.60
2018-09-03T10:11:36.119Z,25.10
2018-09-03T10:14:03.861Z,25.60
2018-09-03T10:16:31.485Z,26.10
2018-09-03T10:18:59.195Z,26.10
2018-09-03T10:21:26.818Z,25.40
2018-09-03T10:23:54.477Z,25.60
2018-09-03T10:26:22.265Z,25.80
2018-09-03T10:28:49.855Z,26.10
2018-09-03T10:31:17.600Z,26.20
2018-09-03T10:33:45.285Z,26.40
2018-09-03T10:36:12.910Z,25.90
2018-09-03T10:38:40.529Z,26.40
2018-09-03T10:41:08.189Z,26.60
2018-09-03T10:43:35.863Z,26.20
2018-09-03T10:46:03.499Z,25.90
2018-09-03T10:48:31.114Z,25.60
2018-09-03T10:50:59.231Z,25.60
2018-09-03T10:53:27.055Z,25.40
2018-09-03T10:55:54.689Z,25.40
2018-09-03T10:58:22.423Z,25.50
2018-09-03T11:00:50.111Z,25.20
2018-09-03T11:03:17.805Z,25.30
2018-09-03T11:05:45.480Z,25.20
2018-09-03T11:08:13.088Z,25.10
2018-09-03T11:10:40.754Z,24.70
2018-09-03T11:13:08.424Z,24.40
2018-09-03T11:15:36.156Z,24.70
2018-09-03T11:18:03.837Z,24.80
2018-09-03T11:20:31.649Z,25.30
2018-09-03T11:22:59.402Z,25.30
2018-09-03T11:25:29.096Z,25.00
2018-09-03T11:27:56.783Z,24.80
2018-09-03T11:30:25.097Z,24.30
2018-09-03T11:33:03.056Z,24.30
2018-09-03T11:35:30.746Z,24.50
2018-09-03T11:37:58.404Z,24.30
2018-09-03T11:40:26.389Z,23.80
2018-09-03T11:42:54.085Z,23.90
2018-09-03T11:45:22.661Z,24.10
2018-09-03T11:47:50.402Z,24.00
2018-09-03T11:50:18.747Z,23.80
2018-09-03T11:52:46.360Z,23.80
2018-09-03T11:55:14.496Z,23.70
2018-09-03T11:57:42.377Z,23.70
2018-09-03T12:00:13.541Z,23.70
2018-09-03T12:02:41.233Z,23.40
2018-09-03T12:05:09.550Z,23.10
2018-09-03T12:07:37.227Z,22.90
2018-09-03T12:10:05.352Z,22.70
2018-09-03T12:12:33.132Z,22.40
2018-09-03T12:15:05.941Z,22.30
2018-09-03T12:17:33.564Z,22.20
2018-09-03T12:20:01.214Z,22.10
2018-09-03T12:22:29.059Z,22.00
2018-09-03T12:24:56.681Z,21.90
2018-09-03T12:27:24.302Z,21.80
2018-09-03T12:29:51.964Z,21.70
2018-09-03T12:32:19.631Z,21.80
2018-09-03T12:34:47.292Z,21.80
2018-09-03T12:37:15.026Z,21.60
2018-09-03T12:39:42.712Z,21.40
2018-09-03T12:42:10.554Z,21.30
2018-09-03T12:44:38.240Z,21.30
2018-09-03T12:47:06.070Z,21.20
2018-09-03T12:49:33.887Z,21.30
2018-09-03T12:52:01.627Z,21.30
2018-09-03T12:54:29.322Z,21.20
2018-09-03T12:56:57.040Z,21.10
2018-09-03T12:59:24.670Z,21.10
2018-09-03T13:01:52.297Z,21.20
2018-09-03T13:04:19.970Z,21.30
2018-09-03T13:06:48.001Z,21.40
2018-09-03T13:09:16.615Z,21.80
2018-09-03T13:11:44.311Z,22.20
2018-09-03T13:14:12.997Z,22.60
2018-09-03T13:16:40.771Z,22.90
2018-09-03T13:19:08.487Z,23.40
2018-09-03T13:21:36.136Z,23.40
2018-09-03T13:24:03.811Z,23.70
2018-09-03T13:26:31.411Z,24.00
2018-09-03T13:28:59.103Z,24.30
2018-09-03T13:31:26.787Z,25.10
2018-09-03T13:33:54.464Z,26.60
2018-09-03T13:36:22.130Z,28.00
2018-09-03T13:38:49.768Z,29.30
2018-09-03T13:41:17.426Z,30.70
2018-09-03T13:43:45.134Z,33.20
2018-09-03T13:46:12.749Z,34.90
2018-09-03T13:48:40.340Z,34.20
2018-09-03T13:51:08.002Z,36.40
2018-09-03T13:53:35.666Z,38.10
2018-09-03T13:56:03.320Z,38.20
2018-09-03T13:58:30.947Z,37.60
2018-09-03T14:00:58.604Z,36.50
2018-09-03T14:03:26.289Z,35.70
2018-09-03T14:05:54.019Z,34.10
2018-09-03T14:08:21.649Z,32.70
2018-09-03T14:10:49.697Z,32.20
2018-09-03T14:13:17.476Z,31.90
2018-09-03T14:15:45.231Z,31.90
2018-09-03T14:18:12.945Z,33.00
2018-09-03T14:20:40.760Z,32.60
2018-09-03T14:23:08.397Z,32.30
2018-09-03T14:25:36.033Z,30.30
2018-09-03T14:28:03.757Z,30.10
2018-09-03T14:30:31.458Z,30.00
2018-09-03T14:32:59.112Z,30.00
2018-09-03T14:35:26.851Z,29.90
2018-09-03T14:37:54.569Z,29.90
2018-09-03T14:40:22.306Z,29.70
2018-09-03T14:42:51.780Z,29.60
2018-09-03T14:45:19.502Z,28.50
2018-09-03T14:47:47.247Z,28.40
2018-09-03T14:50:14.923Z,28.50
2018-09-03T14:52:42.613Z,28.00
2018-09-03T14:55:10.255Z,27.70
2018-09-03T14:57:37.955Z,27.40
2018-09-03T15:00:06.927Z,27.00
2018-09-03T15:02:34.709Z,26.50
2018-09-03T15:05:02.407Z,25.90
2018-09-03T15:07:30.229Z,25.40
2018-09-03T15:09:57.826Z,24.90
2018-09-03T15:12:25.440Z,24.80
2018-09-03T15:14:53.206Z,24.70
2018-09-03T15:17:20.843Z,24.80
2018-09-03T15:19:48.587Z,24.70
2018-09-03T15:22:16.705Z,24.50
2018-09-03T15:24:44.447Z,24.60
2018-09-03T15:27:13.104Z,24.70
2018-09-03T15:29:40.779Z,24.60
2018-09-03T15:32:08.429Z,24.70
2018-09-03T15:34:36.072Z,24.70
2018-09-03T15:37:03.747Z,24.50
2018-09-03T15:39:31.453Z,24.60
2018-09-03T15:41:59.132Z,24.50
2018-09-03T15:44:26.781Z,24.80
2018-09-03T15:46:54.648Z,25.00
2018-09-03T15:49:22.324Z,25.10
2018-09-03T15:51:49.966Z,25.60
2018-09-03T15:54:17.595Z,25.40
2018-09-03T15:56:45.268Z,25.10
2018-09-03T15:59:13.000Z,25.50
2018-09-03T16:01:40.716Z,25.70
2018-09-03T16:04:08.393Z,25.70
2018-09-03T16:06:36.036Z,25.60
2018-09-03T16:09:07.040Z,25.80
2018-09-03T16:11:34.802Z,25.90
2018-09-03T16:14:02.448Z,26.20
2018-09-03T16:16:30.173Z,26.30
2018-09-03T16:18:57.875Z,26.70
2018-09-03T16:21:25.559Z,27.10
2018-09-03T16:23:53.452Z,27.40
2018-09-03T16:26:21.212Z,27.20
2018-09-03T16:28:48.942Z,27.60
2018-09-03T16:31:16.653Z,27.80
2018-09-03T16:33:44.382Z,27.50
2018-09-03T16:36:12.074Z,27.00
2018-09-03T16:38:39.979Z,26.60
2018-09-03T16:41:07.914Z,26.40
2018-09-03T16:43:35.862Z,26.00
2018-09-03T16:46:03.710Z,25.40
2018-09-03T16:48:31.448Z,25.40
2018-09-03T16:50:59.284Z,25.00
2018-09-03T16:53:27.233Z,24.70
2018-09-03T16:55:54.979Z,24.70
2018-09-03T16:58:22.729Z,24.60
2018-09-03T17:00:50.512Z,24.70
2018-09-03T17:03:18.386Z,24.60
2018-09-03T17:05:46.110Z,24.30
2018-09-03T17:08:14.082Z,24.20
2018-09-03T17:10:41.753Z,24.10
2018-09-03T17:13:09.408Z,24.00
2018-09-03T17:15:37.129Z,23.90
2018-09-03T17:18:04.835Z,23.70
2018-09-03T17:20:32.640Z,23.70
2018-09-03T17:23:00.371Z,23.50
2018-09-03T17:25:28.544Z,23.40
2018-09-03T17:27:56.901Z,23.20
2018-09-03T17:30:24.676Z,23.10
2018-09-03T17:32:52.592Z,22.90
2018-09-03T17:35:20.789Z,22.80
2018-09-03T17:37:49.102Z,22.80
2018-09-03T17:40:17.398Z,22.70
2018-09-03T17:42:45.208Z,22.60
2018-09-03T17:45:12.964Z,22.50
2018-09-03T17:47:40.709Z,22.50
2018-09-03T17:50:08.810Z,22.30
2018-09-03T17:52:37.139Z,22.30
2018-09-03T17:55:05.110Z,22.20
2018-09-03T17:57:32.816Z,22.10
2018-09-03T18:00:03.161Z,22.10
2018-09-03T18:02:30.890Z,22.10
2018-09-03T18:04:58.733Z,21.90
2018-09-03T18:07:28.300Z,21.90
2018-09-03T18:09:57.125Z,21.80
2018-09-03T18:12:24.965Z,21.70
2018-09-03T18:14:52.624Z,21.50
2018-09-03T18:17:20.298Z,21.50
2018-09-03T18:19:48.139Z,21.50
2018-09-03T18:22:16.592Z,21.50
2018-09-03T18:24:44.414Z,21.50
2018-09-03T18:27:12.117Z,21.60
2018-09-03T18:29:39.842Z,21.50
2018-09-03T18:32:07.809Z,21.40
2018-09-03T18:34:36.171Z,21.40
2018-09-03T18:37:03.980Z,21.30
2018-09-03T18:39:31.701Z,21.20
2018-09-03T18:41:59.454Z,21.20
2018-09-03T18:44:27.961Z,21.20
2018-09-03T18:46:56.326Z,21.10
2018-09-03T18:49:24.241Z,21.10
2018-09-03T18:51:51.985Z,21.10
2018-09-03T18:54:19.677Z,21.10
2018-09-03T18:56:47.518Z,21.10
2018-09-03T18:59:15.456Z,20.90
2018-09-03T19:01:43.167Z,20.80
2018-09-03T19:04:10.821Z,20.80
2018-09-03T19:06:38.609Z,20.80
2018-09-03T19:09:07.919Z,20.80
2018-09-03T19:11:35.840Z,20.70
2018-09-03T19:14:03.636Z,20.70
2018-09-03T19:16:31.336Z,20.60
2018-09-03T19:18:59.091Z,20.70
2018-09-03T19:21:26.792Z,20.70
2018-09-03T19:23:54.394Z,20.60
2018-09-03T19:26:22.026Z,20.60
2018-09-03T19:28:49.714Z,20.70
2018-09-03T19:31:17.461Z,20.70
2018-09-03T19:33:45.244Z,20.70
2018-09-03T19:36:13.059Z,20.60
2018-09-03T19:38:40.773Z,20.60
2018-09-03T19:41:08.504Z,20.60
2018-09-03T19:43:36.181Z,20.60
2018-09-03T19:46:03.883Z,20.50
2018-09-03T19:48:31.689Z,20.50
2018-09-03T19:50:59.431Z,20.60
2018-09-03T19:53:27.081Z,20.50
2018-09-03T19:55:54.771Z,20.50
2018-09-03T19:58:22.538Z,20.50
2018-09-03T20:00:49.770Z,20.50
2018-09-03T20:03:16.967Z,20.50
2018-09-03T20:05:44.784Z,20.50
2018-09-03T20:08:12.513Z,20.40
2018-09-03T20:10:40.301Z,20.50
2018-09-03T20:13:07.998Z,20.40
2018-09-03T20:15:35.684Z,20.30
2018-09-03T20:18:03.362Z,20.30
2018-09-03T20:20:31.113Z,20.30
2018-09-03T20:22:58.821Z,20.30
2018-09-03T20:25:26.611Z,20.30
2018-09-03T20:27:54.333Z,20.30
2018-09-03T20:30:22.122Z,20.30
2018-09-03T20:32:49.814Z,20.20
2018-09-03T20:35:17.428Z,20.10
2018-09-03T20:37:45.100Z,20.10
2018-09-03T20:40:12.841Z,20.00
2018-09-03T20:42:40.525Z,20.00
2018-09-03T20:45:08.227Z,19.90
2018-09-03T20:47:35.952Z,19.80
2018-09-03T20:50:03.837Z,19.90
2018-09-03T20:52:31.519Z,19.80
2018-09-03T20:54:59.145Z,19.80
2018-09-03T20:57:26.785Z,19.70
2018-09-03T20:59:54.399Z,19.70
2018-09-03T21:02:22.070Z,19.70
2018-09-03T21:04:49.773Z,19.60
2018-09-03T21:07:17.507Z,19.50
2018-09-03T21:09:45.164Z,19.50
2018-09-03T21:12:12.828Z,19.40
2018-09-03T21:14:41.330Z,19.40
2018-09-03T21:17:08.906Z,19.40
2018-09-03T21:19:36.560Z,19.30
2018-09-03T21:22:04.272Z,19.20
2018-09-03T21:24:31.954Z,19.10
2018-09-03T21:26:59.630Z,19.00
2018-09-03T21:29:27.281Z,18.90
2018-09-03T21:31:54.922Z,18.90
2018-09-03T21:34:22.558Z,18.80
2018-09-03T21:36:50.227Z,18.80
2018-09-03T21:39:17.920Z,18.90
2018-09-03T21:41:45.614Z,18.90
2018-09-03T21:44:13.274Z,18.90
2018-09-03T21:46:40.997Z,19.00
2018-09-03T21:49:09.067Z,19.00
2018-09-03T21:51:36.709Z,19.00
2018-09-03T21:54:04.395Z,19.00
2018-09-03T21:56:32.056Z,19.00
2018-09-03T21:58:59.742Z,19.00
2018-09-03T22:01:27.614Z,18.90
2018-09-03T22:03:55.316Z,18.90
2018-09-03T22:06:22.935Z,18.90
2018-09-03T22:08:50.650Z,18.80
2018-09-03T22:11:18.283Z,18.80
2018-09-03T22:13:45.934Z,18.90
2018-09-03T22:16:13.562Z,18.90
2018-09-03T22:18:41.362Z,18.80
2018-09-03T22:21:08.985Z,18.90
2018-09-03T22:23:37.276Z,18.90
2018-09-03T22:26:04.941Z,18.90
2018-09-03T22:28:32.999Z,18.90
2018-09-03T22:31:00.672Z,18.90
2018-09-03T22:33:28.296Z,18.90
2018-09-03T22:35:56.098Z,18.90
2018-09-03T22:38:23.746Z,18.70
2018-09-03T22:40:51.342Z,18.60
2018-09-03T22:43:19.039Z,18.50
2018-09-03T22:45:46.718Z,18.40
2018-09-03T22:48:14.711Z,18.40
2018-09-03T22:50:42.431Z,18.40
2018-09-03T22:53:10.039Z,18.40
2018-09-03T22:55:37.675Z,18.40
2018-09-03T22:58:05.287Z,18.40
2018-09-03T23:00:32.912Z,18.30
2018-09-03T23:03:00.579Z,18.30
2018-09-03T23:05:28.211Z,18.30
2018-09-03T23:07:55.795Z,18.30
2018-09-03T23:10:23.460Z,18.30
2018-09-03T23:12:51.110Z,18.20
2018-09-03T23:15:18.779Z,18.10
2018-09-03T23:17:46.441Z,18.10
2018-09-03T23:20:14.098Z,18.00
2018-09-03T23:22:41.808Z,18.00
2018-09-03T23:25:09.502Z,18.00
2018-09-03T23:27:37.165Z,17.90
2018-09-03T23:30:04.940Z,17.90
2018-09-03T23:32:32.665Z,17.80
2018-09-03T23:35:00.324Z,17.80
2018-09-03T23:37:28.116Z,17.80
2018-09-03T23:39:55.777Z,17.80
2018-09-03T23:42:23.428Z,17.80
2018-09-03T23:44:51.150Z,17.70
2018-09-03T23:47:18.794Z,17.70
2018-09-03T23:49:46.545Z,17.60
2018-09-03T23:52:14.239Z,17.60
2018-09-03T23:54:41.969Z,17.60
2018-09-03T23:57:09.650Z,17.60
2018-09-03T23:59:37.483Z,17.60
